Star Markella — V7KL3 — position and weather

sailwx.info

Track history (hours):
 
Tides and Currents Weather Stations Pressure Air Temp Water Temp Dewpoint Dewpoint Depression Visibility Wind Speed Wind Dir Waves Ship Positions

Star Markella

Last reported at 2014-Sep-30 13:24 UTC. Time now 2014-Oct-22 13:56 UTC.
Position N 31°06' E 122°19'.
Warning: this ship's position is 22 days out of date.

Length 229 m; draft 7 m.

Type: Cargo ship. MMSI: 538002640.

Date/timePositionNaut miles runAvg speedWind from/ knotsBaromVisibWave heightAir tempDewpointWater temp
2014-Sep-30 13:24N 31°06' E 122°19'2412.9
2014-Sep-30 11:33N 31°16' E 121°54'1313.3
2014-Sep-30 10:33N 31°21' E 121°39'1110.8
2014-Sep-30 09:33N 31°26' E 121°29'8 6.8
2014-Sep-30 08:27N 31°32' E 121°23'0 0.1
2014-Sep-30 07:33N 31°32' E 121°23'0 0.0
2014-Sep-30 06:09N 31°32' E 121°23'0 0.0
2014-Sep-30 05:09N 31°32' E 121°23'0 0.2
2014-Sep-30 04:33N 31°32' E 121°23'0 0.0
2014-Sep-30 03:15N 31°32' E 121°23'0 0.0
2014-Sep-30 02:09N 31°32' E 121°23'0 0.0
2014-Sep-30 01:33N 31°32' E 121°23'0 0.0
2014-Sep-29 23:33N 31°32' E 121°23'0 0.0
2014-Sep-29 22:27N 31°32' E 121°23'0 0.0
2014-Sep-29 18:33N 31°32' E 121°23'0 0.1
2014-Sep-29 17:27N 31°32' E 121°23'0 0.1
2014-Sep-29 16:21N 31°32' E 121°23'0 0.0
2014-Sep-29 15:33N 31°32' E 121°23'0 0.0
2014-Sep-29 14:33N 31°32' E 121°23'0 0.0
2014-Sep-29 13:24N 31°32' E 121°23'0 0.0
2014-Sep-29 12:24N 31°32' E 121°23'0 0.0
2014-Sep-29 09:18N 31°32' E 121°23'0 0.1
2014-Sep-29 07:24N 31°32' E 121°23'0 0.0
2014-Sep-29 06:30N 31°32' E 121°23'0 0.2
2014-Sep-29 05:18N 31°32' E 121°23'0 0.1
2014-Sep-29 04:30N 31°32' E 121°23'0 0.0
2014-Sep-29 03:30N 31°32' E 121°23'0 0.0
2014-Sep-29 01:30N 31°32' E 121°23'0 0.0
2014-Sep-29 00:24N 31°32' E 121°23'0 0.0
2014-Sep-28 22:24N 31°32' E 121°23'0 0.0
2014-Sep-28 21:33N 31°32' E 121°23'0 0.2
2014-Sep-28 20:30N 31°32' E 121°23'0 0.1
2014-Sep-28 19:30N 31°32' E 121°23'0 0.0
2014-Sep-28 18:06N 31°32' E 121°23'0 0.1
2014-Sep-28 17:30N 31°32' E 121°23'0 0.2
2014-Sep-28 16:06N 31°32' E 121°23'0 0.0
2014-Sep-28 14:12N 31°32' E 121°23'0 0.0
2014-Sep-28 13:33N 31°32' E 121°23'0 0.1
2014-Sep-28 12:33N 31°32' E 121°23'0 0.0
2014-Sep-28 11:24N 31°32' E 121°23'0 0.1
2014-Sep-28 09:30N 31°32' E 121°23'0 0.1
2014-Sep-28 08:30N 31°32' E 121°23'0 0.0
2014-Sep-28 06:24N 31°32' E 121°23'0 0.1
2014-Sep-28 02:24N 31°32' E 121°23'0 0.0
2014-Sep-28 01:18N 31°32' E 121°23'0 0.0
2014-Sep-28 00:30N 31°32' E 121°23'0 0.0
2014-Sep-27 23:24N 31°32' E 121°23'0 0.0
2014-Sep-27 22:09N 31°32' E 121°23'0 0.1
2014-Sep-27 21:33N 31°32' E 121°23'0 0.1
2014-Sep-27 18:06N 31°32' E 121°23'0 0.0
2014-Sep-27 16:09N 31°32' E 121°23'0 0.4
2014-Sep-27 15:33N 31°32' E 121°23'0 0.0
2014-Sep-27 14:24N 31°32' E 121°23'0 0.0
2014-Sep-27 13:24N 31°32' E 121°23'0 0.0
2014-Sep-27 12:30N 31°32' E 121°23'0 0.1
2014-Sep-27 11:30N 31°32' E 121°23'0 0.0
2014-Sep-27 10:18N 31°32' E 121°23'0 0.1
2014-Sep-27 09:06N 31°32' E 121°23'0 0.2
2014-Sep-27 08:12N 31°32' E 121°23'0 0.1
2014-Sep-27 07:12N 31°32' E 121°23'0 0.0
2014-Sep-27 06:24N 31°32' E 121°23'0 0.0
2014-Sep-27 05:30N 31°32' E 121°23'0 0.0
2014-Sep-27 04:24N 31°32' E 121°23'0 0.2
2014-Sep-27 03:06N 31°32' E 121°23'0 0.1
2014-Sep-27 02:12N 31°32' E 121°23'0 0.1
2014-Sep-27 01:30N 31°32' E 121°23'0 0.0
2014-Sep-27 00:24N 31°32' E 121°23'0 0.0
2014-Sep-26 23:30N 31°32' E 121°23'0 0.0
2014-Sep-26 22:12N 31°32' E 121°23'0 0.4
2014-Sep-26 21:31N 31°32' E 121°23'8 7.7
2014-Sep-26 20:33N 31°37' E 121°16'1111.2
2014-Sep-26 19:33N 31°44' E 121°06'1110.7
2014-Sep-26 18:34N 31°49' E 120°55'1212.3
2014-Sep-26 17:33N 31°60' E 120°49'1413.9
2014-Sep-26 16:33N 32°01' E 120°33'9 8.6
2014-Sep-26 15:33N 31°58' E 120°23'3 3.0
2014-Sep-26 14:33N 31°57' E 120°20'0 0.0
2014-Sep-26 13:33N 31°57' E 120°20'0 0.0
2014-Sep-26 12:33N 31°57' E 120°20'0 0.1
2014-Sep-26 11:33N 31°57' E 120°20'0 0.1
2014-Sep-26 10:33N 31°57' E 120°20'0 0.1
2014-Sep-26 09:33N 31°57' E 120°20'0 0.1
2014-Sep-26 08:33N 31°57' E 120°20'0 0.1
2014-Sep-26 07:33N 31°57' E 120°20'0 0.0
2014-Sep-26 06:33N 31°57' E 120°20'0 0.1
2014-Sep-26 05:33N 31°57' E 120°20'0 0.0
2014-Sep-26 04:33N 31°57' E 120°20'0 0.1
2014-Sep-26 03:33N 31°57' E 120°20'0 0.0
2014-Sep-26 02:30N 31°57' E 120°20'0 0.0
2014-Sep-26 01:33N 31°57' E 120°20'0 0.1
2014-Sep-26 00:33N 31°57' E 120°20'0 0.0
2014-Sep-25 23:33N 31°57' E 120°20'0 0.1
2014-Sep-25 22:33N 31°57' E 120°20'0 0.0
2014-Sep-25 21:33N 31°57' E 120°20'0 0.0
2014-Sep-25 20:33N 31°57' E 120°20'0 0.1
2014-Sep-25 19:33N 31°57' E 120°20'0 0.0
2014-Sep-25 18:33N 31°57' E 120°20'0 0.0
2014-Sep-25 17:33N 31°57' E 120°20'0 0.1
2014-Sep-25 16:33N 31°57' E 120°20'0 0.0
2014-Sep-25 15:33N 31°57' E 120°20'0 0.1
2014-Sep-25 14:33N 31°57' E 120°20'0 0.1
2014-Sep-25 13:33N 31°57' E 120°20'0 0.1
2014-Sep-25 12:33N 31°57' E 120°20'0 0.1
2014-Sep-25 11:33N 31°57' E 120°20'0 0.0
2014-Sep-25 10:33N 31°57' E 120°20'0 0.1
2014-Sep-25 09:33N 31°57' E 120°20'0 0.1
2014-Sep-25 08:33N 31°57' E 120°20'0 0.1
2014-Sep-25 07:33N 31°57' E 120°20'0 0.0
2014-Sep-25 06:33N 31°57' E 120°20'5 4.7
2014-Sep-25 05:33N 31°58' E 120°25'6 6.2
2014-Sep-25 04:33N 32°02' E 120°31'9 8.6
2014-Sep-25 03:33N 32°00' E 120°41'8 7.9
2014-Sep-25 02:33N 31°59' E 120°51'9 9.1
2014-Sep-25 01:33N 31°50' E 120°54'8 7.9
2014-Sep-25 00:33N 31°46' E 121°02'9 8.6
2014-Sep-24 23:33N 31°41' E 121°10'9 8.4
2014-Sep-24 22:32N 31°36' E 121°18'1 1.1
2014-Sep-24 21:22N 31°35' E 121°19'0 0.0
2014-Sep-24 20:19N 31°35' E 121°19'3 4.2
2014-Sep-24 19:33N 31°32' E 121°21'1010.1
2014-Sep-24 18:33N 31°26' E 121°30'6 5.7
2014-Sep-24 17:33N 31°23' E 121°36'9 9.4
2014-Sep-24 16:33N 31°18' E 121°46'1211.6
2014-Sep-24 15:33N 31°15' E 121°59'  
2014-Sep-21 20:09N 30°48' E 123°17'59 6.1
2014-Sep-21 10:22N 29°51' E 122°56'19 6.6
2014-Sep-21 07:30N 29°33' E 122°48'27 6.4
2014-Sep-21 03:14N 29°07' E 122°39'  
Track history (hours):
 
Tides and Currents Weather Stations Pressure Air Temp Water Temp Dewpoint Dewpoint Depression Visibility Wind Speed Wind Dir Waves Ship Positions

Star Markella

Last reported at 2014-Sep-30 13:24 UTC. Time now 2014-Oct-22 13:56 UTC.
Position N 31°06' E 122°19'.
Warning: this ship's position is 22 days out of date.

Length 229 m; draft 7 m.

Type: Cargo ship. MMSI: 538002640.

Date/timePositionNaut miles runAvg speedWind from/ knotsBaromVisibWave heightAir tempDewpointWater temp
2014-Sep-30 13:24N 31°06' E 122°19'2412.9
2014-Sep-30 11:33N 31°16' E 121°54'1313.3
2014-Sep-30 10:33N 31°21' E 121°39'1110.8
2014-Sep-30 09:33N 31°26' E 121°29'8 6.8
2014-Sep-30 08:27N 31°32' E 121°23'0 0.1
2014-Sep-30 07:33N 31°32' E 121°23'0 0.0
2014-Sep-30 06:09N 31°32' E 121°23'0 0.0
2014-Sep-30 05:09N 31°32' E 121°23'0 0.2
2014-Sep-30 04:33N 31°32' E 121°23'0 0.0
2014-Sep-30 03:15N 31°32' E 121°23'0 0.0
2014-Sep-30 02:09N 31°32' E 121°23'0 0.0
2014-Sep-30 01:33N 31°32' E 121°23'0 0.0
2014-Sep-29 23:33N 31°32' E 121°23'0 0.0
2014-Sep-29 22:27N 31°32' E 121°23'0 0.0
2014-Sep-29 18:33N 31°32' E 121°23'0 0.1
2014-Sep-29 17:27N 31°32' E 121°23'0 0.1
2014-Sep-29 16:21N 31°32' E 121°23'0 0.0
2014-Sep-29 15:33N 31°32' E 121°23'0 0.0
2014-Sep-29 14:33N 31°32' E 121°23'0 0.0
2014-Sep-29 13:24N 31°32' E 121°23'0 0.0
2014-Sep-29 12:24N 31°32' E 121°23'0 0.0
2014-Sep-29 09:18N 31°32' E 121°23'0 0.1
2014-Sep-29 07:24N 31°32' E 121°23'0 0.0
2014-Sep-29 06:30N 31°32' E 121°23'0 0.2
2014-Sep-29 05:18N 31°32' E 121°23'0 0.1
2014-Sep-29 04:30N 31°32' E 121°23'0 0.0
2014-Sep-29 03:30N 31°32' E 121°23'0 0.0
2014-Sep-29 01:30N 31°32' E 121°23'0 0.0
2014-Sep-29 00:24N 31°32' E 121°23'0 0.0
2014-Sep-28 22:24N 31°32' E 121°23'0 0.0
2014-Sep-28 21:33N 31°32' E 121°23'0 0.2
2014-Sep-28 20:30N 31°32' E 121°23'0 0.1
2014-Sep-28 19:30N 31°32' E 121°23'0 0.0
2014-Sep-28 18:06N 31°32' E 121°23'0 0.1
2014-Sep-28 17:30N 31°32' E 121°23'0 0.2
2014-Sep-28 16:06N 31°32' E 121°23'0 0.0
2014-Sep-28 14:12N 31°32' E 121°23'0 0.0
2014-Sep-28 13:33N 31°32' E 121°23'0 0.1
2014-Sep-28 12:33N 31°32' E 121°23'0 0.0
2014-Sep-28 11:24N 31°32' E 121°23'0 0.1
2014-Sep-28 09:30N 31°32' E 121°23'0 0.1
2014-Sep-28 08:30N 31°32' E 121°23'0 0.0
2014-Sep-28 06:24N 31°32' E 121°23'0 0.1
2014-Sep-28 02:24N 31°32' E 121°23'0 0.0
2014-Sep-28 01:18N 31°32' E 121°23'0 0.0
2014-Sep-28 00:30N 31°32' E 121°23'0 0.0
2014-Sep-27 23:24N 31°32' E 121°23'0 0.0
2014-Sep-27 22:09N 31°32' E 121°23'0 0.1
2014-Sep-27 21:33N 31°32' E 121°23'0 0.1
2014-Sep-27 18:06N 31°32' E 121°23'0 0.0
2014-Sep-27 16:09N 31°32' E 121°23'0 0.4
2014-Sep-27 15:33N 31°32' E 121°23'0 0.0
2014-Sep-27 14:24N 31°32' E 121°23'0 0.0
2014-Sep-27 13:24N 31°32' E 121°23'0 0.0
2014-Sep-27 12:30N 31°32' E 121°23'0 0.1
2014-Sep-27 11:30N 31°32' E 121°23'0 0.0
2014-Sep-27 10:18N 31°32' E 121°23'0 0.1
2014-Sep-27 09:06N 31°32' E 121°23'0 0.2
2014-Sep-27 08:12N 31°32' E 121°23'0 0.1
2014-Sep-27 07:12N 31°32' E 121°23'0 0.0
2014-Sep-27 06:24N 31°32' E 121°23'0 0.0
2014-Sep-27 05:30N 31°32' E 121°23'0 0.0
2014-Sep-27 04:24N 31°32' E 121°23'0 0.2
2014-Sep-27 03:06N 31°32' E 121°23'0 0.1
2014-Sep-27 02:12N 31°32' E 121°23'0 0.1
2014-Sep-27 01:30N 31°32' E 121°23'0 0.0
2014-Sep-27 00:24N 31°32' E 121°23'0 0.0
2014-Sep-26 23:30N 31°32' E 121°23'0 0.0
2014-Sep-26 22:12N 31°32' E 121°23'0 0.4
2014-Sep-26 21:31N 31°32' E 121°23'8 7.7
2014-Sep-26 20:33N 31°37' E 121°16'1111.2
2014-Sep-26 19:33N 31°44' E 121°06'1110.7
2014-Sep-26 18:34N 31°49' E 120°55'1212.3
2014-Sep-26 17:33N 31°60' E 120°49'1413.9
2014-Sep-26 16:33N 32°01' E 120°33'9 8.6
2014-Sep-26 15:33N 31°58' E 120°23'3 3.0
2014-Sep-26 14:33N 31°57' E 120°20'0 0.0
2014-Sep-26 13:33N 31°57' E 120°20'0 0.0
2014-Sep-26 12:33N 31°57' E 120°20'0 0.1
2014-Sep-26 11:33N 31°57' E 120°20'0 0.1
2014-Sep-26 10:33N 31°57' E 120°20'0 0.1
2014-Sep-26 09:33N 31°57' E 120°20'0 0.1
2014-Sep-26 08:33N 31°57' E 120°20'0 0.1
2014-Sep-26 07:33N 31°57' E 120°20'0 0.0
2014-Sep-26 06:33N 31°57' E 120°20'0 0.1
2014-Sep-26 05:33N 31°57' E 120°20'0 0.0
2014-Sep-26 04:33N 31°57' E 120°20'0 0.1
2014-Sep-26 03:33N 31°57' E 120°20'0 0.0
2014-Sep-26 02:30N 31°57' E 120°20'0 0.0
2014-Sep-26 01:33N 31°57' E 120°20'0 0.1
2014-Sep-26 00:33N 31°57' E 120°20'0 0.0
2014-Sep-25 23:33N 31°57' E 120°20'0 0.1
2014-Sep-25 22:33N 31°57' E 120°20'0 0.0
2014-Sep-25 21:33N 31°57' E 120°20'0 0.0
2014-Sep-25 20:33N 31°57' E 120°20'0 0.1
2014-Sep-25 19:33N 31°57' E 120°20'0 0.0
2014-Sep-25 18:33N 31°57' E 120°20'0 0.0
2014-Sep-25 17:33N 31°57' E 120°20'0 0.1
2014-Sep-25 16:33N 31°57' E 120°20'0 0.0
2014-Sep-25 15:33N 31°57' E 120°20'0 0.1
2014-Sep-25 14:33N 31°57' E 120°20'0 0.1
2014-Sep-25 13:33N 31°57' E 120°20'0 0.1
2014-Sep-25 12:33N 31°57' E 120°20'0 0.1
2014-Sep-25 11:33N 31°57' E 120°20'0 0.0
2014-Sep-25 10:33N 31°57' E 120°20'0 0.1
2014-Sep-25 09:33N 31°57' E 120°20'0 0.1
2014-Sep-25 08:33N 31°57' E 120°20'0 0.1
2014-Sep-25 07:33N 31°57' E 120°20'0 0.0
2014-Sep-25 06:33N 31°57' E 120°20'5 4.7
2014-Sep-25 05:33N 31°58' E 120°25'6 6.2
2014-Sep-25 04:33N 32°02' E 120°31'9 8.6
2014-Sep-25 03:33N 32°00' E 120°41'8 7.9
2014-Sep-25 02:33N 31°59' E 120°51'9 9.1
2014-Sep-25 01:33N 31°50' E 120°54'8 7.9
2014-Sep-25 00:33N 31°46' E 121°02'9 8.6
2014-Sep-24 23:33N 31°41' E 121°10'9 8.4
2014-Sep-24 22:32N 31°36' E 121°18'1 1.1
2014-Sep-24 21:22N 31°35' E 121°19'0 0.0
2014-Sep-24 20:19N 31°35' E 121°19'3 4.2
2014-Sep-24 19:33N 31°32' E 121°21'1010.1
2014-Sep-24 18:33N 31°26' E 121°30'6 5.7
2014-Sep-24 17:33N 31°23' E 121°36'9 9.4
2014-Sep-24 16:33N 31°18' E 121°46'1211.6
2014-Sep-24 15:33N 31°15' E 121°59'  
2014-Sep-21 20:09N 30°48' E 123°17'59 6.1
2014-Sep-21 10:22N 29°51' E 122°56'19 6.6
2014-Sep-21 07:30N 29°33' E 122°48'27 6.4
2014-Sep-21 03:14N 29°07' E 122°39'  

Dump ship's entire track history